sensor_id;sensor_type;location;lat;lon;timestamp;temperature;humidity
9544;DHT22;30418;51.45933468;7.33152330;2022-10-16T00:01:45;17.80;74.40
9544;DHT22;30418;51.45933468;7.33152330;2022-10-16T00:04:15;17.80;74.40
9544;DHT22;30418;51.45933468;7.33152330;2022-10-16T00:06:43;17.80;74.40
9544;DHT22;30418;51.45933468;7.33152330;2022-10-16T00:09:12;17.80;74.40
9544;DHT22;30418;51.45933468;7.33152330;2022-10-16T00:11:41;17.70;74.30
9544;DHT22;30418;51.45933468;7.33152330;2022-10-16T00:14:12;17.80;74.40
9544;DHT22;30418;51.45933468;7.33152330;2022-10-16T00:16:42;17.70;74.30
9544;DHT22;30418;51.45933468;7.33152330;2022-10-16T00:19:11;17.80;74.40
9544;DHT22;30418;51.45933468;7.33152330;2022-10-16T00:21:41;17.70;74.30
9544;DHT22;30418;51.45933468;7.33152330;2022-10-16T00:24:10;17.70;74.20
9544;DHT22;30418;51.45933468;7.33152330;2022-10-16T00:26:39;17.70;74.20
9544;DHT22;30418;51.45933468;7.33152330;2022-10-16T00:29:08;17.70;75.10
9544;DHT22;30418;51.45933468;7.33152330;2022-10-16T00:31:37;17.70;74.20
9544;DHT22;30418;51.45933468;7.33152330;2022-10-16T00:34:05;17.70;74.20
9544;DHT22;30418;51.45933468;7.33152330;2022-10-16T00:36:34;17.60;74.10
9544;DHT22;30418;51.45933468;7.33152330;2022-10-16T00:39:04;17.60;74.20
9544;DHT22;30418;51.45933468;7.33152330;2022-10-16T00:41:32;17.60;74.20
9544;DHT22;30418;51.45933468;7.33152330;2022-10-16T00:44:03;17.60;74.20
9544;DHT22;30418;51.45933468;7.33152330;2022-10-16T00:46:52;17.60;74.20
9544;DHT22;30418;51.45933468;7.33152330;2022-10-16T00:49:20;17.60;74.20
9544;DHT22;30418;51.45933468;7.33152330;2022-10-16T00:51:51;17.60;74.20
9544;DHT22;30418;51.45933468;7.33152330;2022-10-16T00:54:25;17.60;74.20
9544;DHT22;30418;51.45933468;7.33152330;2022-10-16T00:56:55;17.60;74.20
9544;DHT22;30418;51.45933468;7.33152330;2022-10-16T00:59:28;17.60;74.20
9544;DHT22;30418;51.45933468;7.33152330;2022-10-16T01:01:58;17.60;74.20
9544;DHT22;30418;51.45933468;7.33152330;2022-10-16T01:04:31;17.60;74.20
9544;DHT22;30418;51.45933468;7.33152330;2022-10-16T01:07:06;17.60;74.20
9544;DHT22;30418;51.45933468;7.33152330;2022-10-16T01:09:47;17.70;74.30
9544;DHT22;30418;51.45933468;7.33152330;2022-10-16T01:12:29;17.60;74.20
9544;DHT22;30418;51.45933468;7.33152330;2022-10-16T01:15:10;17.60;74.20
9544;DHT22;30418;51.45933468;7.33152330;2022-10-16T01:17:45;17.60;74.20
9544;DHT22;30418;51.45933468;7.33152330;2022-10-16T01:20:21;17.60;74.20
9544;DHT22;30418;51.45933468;7.33152330;2022-10-16T01:23:09;17.60;74.20
9544;DHT22;30418;51.45933468;7.33152330;2022-10-16T01:26:03;17.60;74.10
9544;DHT22;30418;51.45933468;7.33152330;2022-10-16T01:28:44;17.60;74.00
9544;DHT22;30418;51.45933468;7.33152330;2022-10-16T01:31:18;17.60;74.00
9544;DHT22;30418;51.45933468;7.33152330;2022-10-16T01:33:52;17.60;74.00
9544;DHT22;30418;51.45933468;7.33152330;2022-10-16T01:36:28;17.50;73.90
9544;DHT22;30418;51.45933468;7.33152330;2022-10-16T01:39:01;17.50;73.90
9544;DHT22;30418;51.45933468;7.33152330;2022-10-16T01:41:33;17.50;73.90
9544;DHT22;30418;51.45933468;7.33152330;2022-10-16T01:44:06;17.50;74.00
9544;DHT22;30418;51.45933468;7.33152330;2022-10-16T01:46:39;17.50;74.00
9544;DHT22;30418;51.45933468;7.33152330;2022-10-16T01:49:09;17.50;74.00
9544;DHT22;30418;51.45933468;7.33152330;2022-10-16T01:51:39;17.50;73.90
9544;DHT22;30418;51.45933468;7.33152330;2022-10-16T01:54:08;17.50;73.90
9544;DHT22;30418;51.45933468;7.33152330;2022-10-16T01:56:38;17.40;73.80
9544;DHT22;30418;51.45933468;7.33152330;2022-10-16T01:59:11;17.40;73.80
9544;DHT22;30418;51.45933468;7.33152330;2022-10-16T02:01:47;17.40;73.80
9544;DHT22;30418;51.45933468;7.33152330;2022-10-16T02:04:20;17.40;73.90
9544;DHT22;30418;51.45933468;7.33152330;2022-10-16T02:06:52;17.40;73.80
9544;DHT22;30418;51.45933468;7.33152330;2022-10-16T02:09:21;17.40;73.90
9544;DHT22;30418;51.45933468;7.33152330;2022-10-16T02:11:50;17.40;74.00
9544;DHT22;30418;51.45933468;7.33152330;2022-10-16T02:14:22;17.50;74.00
9544;DHT22;30418;51.45933468;7.33152330;2022-10-16T02:16:51;17.40;73.90
9544;DHT22;30418;51.45933468;7.33152330;2022-10-16T02:19:21;17.40;73.90
9544;DHT22;30418;51.45933468;7.33152330;2022-10-16T02:21:53;17.40;73.70
9544;DHT22;30418;51.45933468;7.33152330;2022-10-16T02:24:28;17.40;74.60
9544;DHT22;30418;51.45933468;7.33152330;2022-10-16T02:27:05;17.40;73.70
9544;DHT22;30418;51.45933468;7.33152330;2022-10-16T02:29:40;17.40;73.70
9544;DHT22;30418;51.45933468;7.33152330;2022-10-16T02:32:14;17.40;73.70
9544;DHT22;30418;51.45933468;7.33152330;2022-10-16T02:34:47;17.40;73.70
9544;DHT22;30418;51.45933468;7.33152330;2022-10-16T02:37:18;17.30;73.60
9544;DHT22;30418;51.45933468;7.33152330;2022-10-16T02:39:46;17.40;73.70
9544;DHT22;30418;51.45933468;7.33152330;2022-10-16T02:42:17;17.30;73.60
9544;DHT22;30418;51.45933468;7.33152330;2022-10-16T02:44:47;17.30;73.60
9544;DHT22;30418;51.45933468;7.33152330;2022-10-16T02:47:16;17.30;73.60
9544;DHT22;30418;51.45933468;7.33152330;2022-10-16T02:49:44;17.30;73.60
9544;DHT22;30418;51.45933468;7.33152330;2022-10-16T02:52:13;17.30;73.50
9544;DHT22;30418;51.45933468;7.33152330;2022-10-16T02:54:41;17.30;73.60
9544;DHT22;30418;51.45933468;7.33152330;2022-10-16T02:57:09;17.30;73.60
9544;DHT22;30418;51.45933468;7.33152330;2022-10-16T02:59:38;17.30;73.60
9544;DHT22;30418;51.45933468;7.33152330;2022-10-16T03:02:08;17.30;73.60
9544;DHT22;30418;51.45933468;7.33152330;2022-10-16T03:04:37;17.30;73.60
9544;DHT22;30418;51.45933468;7.33152330;2022-10-16T03:07:06;17.30;73.70
9544;DHT22;30418;51.45933468;7.33152330;2022-10-16T03:09:34;17.30;73.80
9544;DHT22;30418;51.45933468;7.33152330;2022-10-16T03:12:03;17.30;73.80
9544;DHT22;30418;51.45933468;7.33152330;2022-10-16T03:14:32;17.30;73.90
9544;DHT22;30418;51.45933468;7.33152330;2022-10-16T03:17:00;17.30;73.80
9544;DHT22;30418;51.45933468;7.33152330;2022-10-16T03:19:30;17.30;73.90
9544;DHT22;30418;51.45933468;7.33152330;2022-10-16T03:21:58;17.30;73.80
9544;DHT22;30418;51.45933468;7.33152330;2022-10-16T03:24:27;17.30;73.90
9544;DHT22;30418;51.45933468;7.33152330;2022-10-16T03:26:55;17.30;73.90
9544;DHT22;30418;51.45933468;7.33152330;2022-10-16T03:29:24;17.30;73.90
9544;DHT22;30418;51.45933468;7.33152330;2022-10-16T03:31:54;17.30;73.90
9544;DHT22;30418;51.45933468;7.33152330;2022-10-16T03:34:22;17.30;73.90
9544;DHT22;30418;51.45933468;7.33152330;2022-10-16T03:36:52;17.30;73.90
9544;DHT22;30418;51.45933468;7.33152330;2022-10-16T03:39:21;17.30;73.90
9544;DHT22;30418;51.45933468;7.33152330;2022-10-16T03:41:49;17.30;73.80
9544;DHT22;30418;51.45933468;7.33152330;2022-10-16T03:44:18;17.30;73.80
9544;DHT22;30418;51.45933468;7.33152330;2022-10-16T03:46:46;17.30;73.70
9544;DHT22;30418;51.45933468;7.33152330;2022-10-16T03:49:15;17.30;73.60
9544;DHT22;30418;51.45933468;7.33152330;2022-10-16T03:51:43;17.20;73.50
9544;DHT22;30418;51.45933468;7.33152330;2022-10-16T03:54:14;17.20;73.40
9544;DHT22;30418;51.45933468;7.33152330;2022-10-16T03:56:42;17.30;73.50
9544;DHT22;30418;51.45933468;7.33152330;2022-10-16T03:59:11;17.30;73.50
9544;DHT22;30418;51.45933468;7.33152330;2022-10-16T04:01:40;17.20;73.40
9544;DHT22;30418;51.45933468;7.33152330;2022-10-16T04:04:08;17.20;73.30
9544;DHT22;30418;51.45933468;7.33152330;2022-10-16T04:06:37;17.20;73.30
9544;DHT22;30418;51.45933468;7.33152330;2022-10-16T04:09:05;17.20;73.20
9544;DHT22;30418;51.45933468;7.33152330;2022-10-16T04:11:35;17.20;73.20
9544;DHT22;30418;51.45933468;7.33152330;2022-10-16T04:14:04;17.20;73.10
9544;DHT22;30418;51.45933468;7.33152330;2022-10-16T04:16:32;17.20;73.20
9544;DHT22;30418;51.45933468;7.33152330;2022-10-16T04:19:01;17.20;73.20
9544;DHT22;30418;51.45933468;7.33152330;2022-10-16T04:21:29;17.20;73.10
9544;DHT22;30418;51.45933468;7.33152330;2022-10-16T04:23:58;17.10;73.00
9544;DHT22;30418;51.45933468;7.33152330;2022-10-16T04:26:26;17.10;72.90
9544;DHT22;30418;51.45933468;7.33152330;2022-10-16T04:28:56;17.10;72.90
9544;DHT22;30418;51.45933468;7.33152330;2022-10-16T04:31:25;17.10;72.90
9544;DHT22;30418;51.45933468;7.33152330;2022-10-16T04:33:53;17.10;72.80
9544;DHT22;30418;51.45933468;7.33152330;2022-10-16T04:36:22;17.00;72.70
9544;DHT22;30418;51.45933468;7.33152330;2022-10-16T04:38:55;17.00;72.80
9544;DHT22;30418;51.45933468;7.33152330;2022-10-16T04:41:23;17.00;72.80
9544;DHT22;30418;51.45933468;7.33152330;2022-10-16T04:43:52;17.00;72.80
9544;DHT22;30418;51.45933468;7.33152330;2022-10-16T04:46:21;17.00;72.80
9544;DHT22;30418;51.45933468;7.33152330;2022-10-16T04:48:50;17.00;72.80
9544;DHT22;30418;51.45933468;7.33152330;2022-10-16T04:51:18;17.00;72.80
9544;DHT22;30418;51.45933468;7.33152330;2022-10-16T04:53:47;17.00;72.80
9544;DHT22;30418;51.45933468;7.33152330;2022-10-16T04:56:15;17.00;72.80
9544;DHT22;30418;51.45933468;7.33152330;2022-10-16T04:58:44;17.00;72.70
9544;DHT22;30418;51.45933468;7.33152330;2022-10-16T05:01:12;17.00;72.80
9544;DHT22;30418;51.45933468;7.33152330;2022-10-16T05:03:42;16.90;72.70
9544;DHT22;30418;51.45933468;7.33152330;2022-10-16T05:06:11;16.90;72.80
9544;DHT22;30418;51.45933468;7.33152330;2022-10-16T05:08:39;16.90;72.70
9544;DHT22;30418;51.45933468;7.33152330;2022-10-16T05:11:08;16.90;72.70
9544;DHT22;30418;51.45933468;7.33152330;2022-10-16T05:13:36;16.90;72.70
9544;DHT22;30418;51.45933468;7.33152330;2022-10-16T05:16:05;16.90;72.80
9544;DHT22;30418;51.45933468;7.33152330;2022-10-16T05:18:34;16.90;72.80
9544;DHT22;30418;51.45933468;7.33152330;2022-10-16T05:21:04;16.90;72.80
9544;DHT22;30418;51.45933468;7.33152330;2022-10-16T05:23:33;16.90;72.90
9544;DHT22;30418;51.45933468;7.33152330;2022-10-16T05:26:02;16.90;72.90
9544;DHT22;30418;51.45933468;7.33152330;2022-10-16T05:28:31;16.90;73.00
9544;DHT22;30418;51.45933468;7.33152330;2022-10-16T05:31:04;16.90;73.00
9544;DHT22;30418;51.45933468;7.33152330;2022-10-16T05:33:33;16.90;73.00
9544;DHT22;30418;51.45933468;7.33152330;2022-10-16T05:36:05;16.90;73.00
9544;DHT22;30418;51.45933468;7.33152330;2022-10-16T05:38:35;16.90;73.10
9544;DHT22;30418;51.45933468;7.33152330;2022-10-16T05:41:04;16.90;73.10
9544;DHT22;30418;51.45933468;7.33152330;2022-10-16T05:43:33;16.90;73.00
9544;DHT22;30418;51.45933468;7.33152330;2022-10-16T05:46:03;16.90;73.00
9544;DHT22;30418;51.45933468;7.33152330;2022-10-16T05:48:33;16.90;72.90
9544;DHT22;30418;51.45933468;7.33152330;2022-10-16T05:51:04;16.90;73.00
9544;DHT22;30418;51.45933468;7.33152330;2022-10-16T05:53:35;16.90;73.00
9544;DHT22;30418;51.45933468;7.33152330;2022-10-16T05:56:06;16.90;73.10
9544;DHT22;30418;51.45933468;7.33152330;2022-10-16T05:58:38;16.90;73.10
9544;DHT22;30418;51.45933468;7.33152330;2022-10-16T06:01:10;16.90;73.10
9544;DHT22;30418;51.45933468;7.33152330;2022-10-16T06:03:40;16.90;73.10
9544;DHT22;30418;51.45933468;7.33152330;2022-10-16T06:06:12;16.90;73.10
9544;DHT22;30418;51.45933468;7.33152330;2022-10-16T06:08:42;16.90;73.10
9544;DHT22;30418;51.45933468;7.33152330;2022-10-16T06:11:14;16.90;73.10
9544;DHT22;30418;51.45933468;7.33152330;2022-10-16T06:13:44;16.90;73.20
9544;DHT22;30418;51.45933468;7.33152330;2022-10-16T06:16:13;16.90;73.20
9544;DHT22;30418;51.45933468;7.33152330;2022-10-16T06:18:41;16.90;73.10
9544;DHT22;30418;51.45933468;7.33152330;2022-10-16T06:21:13;16.90;73.10
9544;DHT22;30418;51.45933468;7.33152330;2022-10-16T06:23:45;16.90;73.10
9544;DHT22;30418;51.45933468;7.33152330;2022-10-16T06:26:16;16.90;73.10
9544;DHT22;30418;51.45933468;7.33152330;2022-10-16T06:28:46;16.90;73.20
9544;DHT22;30418;51.45933468;7.33152330;2022-10-16T06:31:15;16.90;73.20
9544;DHT22;30418;51.45933468;7.33152330;2022-10-16T06:33:44;16.80;73.10
9544;DHT22;30418;51.45933468;7.33152330;2022-10-16T06:36:16;16.90;73.20
9544;DHT22;30418;51.45933468;7.33152330;2022-10-16T06:38:45;16.90;73.30
9544;DHT22;30418;51.45933468;7.33152330;2022-10-16T06:41:16;16.90;73.30
9544;DHT22;30418;51.45933468;7.33152330;2022-10-16T06:43:46;16.90;73.20
9544;DHT22;30418;51.45933468;7.33152330;2022-10-16T06:46:16;16.90;73.20
9544;DHT22;30418;51.45933468;7.33152330;2022-10-16T06:48:46;16.90;73.30
9544;DHT22;30418;51.45933468;7.33152330;2022-10-16T06:51:17;16.90;73.40
9544;DHT22;30418;51.45933468;7.33152330;2022-10-16T06:53:48;16.90;73.40
9544;DHT22;30418;51.45933468;7.33152330;2022-10-16T06:56:33;16.90;73.40
9544;DHT22;30418;51.45933468;7.33152330;2022-10-16T06:59:03;16.90;73.50
9544;DHT22;30418;51.45933468;7.33152330;2022-10-16T07:01:32;16.90;73.40
9544;DHT22;30418;51.45933468;7.33152330;2022-10-16T07:04:01;16.90;73.40
9544;DHT22;30418;51.45933468;7.33152330;2022-10-16T07:06:33;16.90;73.40
9544;DHT22;30418;51.45933468;7.33152330;2022-10-16T07:09:04;16.90;73.40
9544;DHT22;30418;51.45933468;7.33152330;2022-10-16T07:11:36;16.90;73.40
9544;DHT22;30418;51.45933468;7.33152330;2022-10-16T07:14:14;16.90;73.40
9544;DHT22;30418;51.45933468;7.33152330;2022-10-16T07:16:44;16.90;73.50
9544;DHT22;30418;51.45933468;7.33152330;2022-10-16T07:19:13;17.00;73.60
9544;DHT22;30418;51.45933468;7.33152330;2022-10-16T07:21:45;17.00;73.70
9544;DHT22;30418;51.45933468;7.33152330;2022-10-16T07:24:15;17.00;73.70
9544;DHT22;30418;51.45933468;7.33152330;2022-10-16T07:26:45;17.00;73.70
9544;DHT22;30418;51.45933468;7.33152330;2022-10-16T07:29:15;17.00;73.70
9544;DHT22;30418;51.45933468;7.33152330;2022-10-16T07:31:45;17.00;73.60
9544;DHT22;30418;51.45933468;7.33152330;2022-10-16T07:34:15;17.00;73.60
9544;DHT22;30418;51.45933468;7.33152330;2022-10-16T07:36:47;17.00;73.60
9544;DHT22;30418;51.45933468;7.33152330;2022-10-16T07:39:16;17.00;73.60
9544;DHT22;30418;51.45933468;7.33152330;2022-10-16T07:41:45;17.00;73.60
9544;DHT22;30418;51.45933468;7.33152330;2022-10-16T07:44:15;17.00;73.60
9544;DHT22;30418;51.45933468;7.33152330;2022-10-16T07:46:43;17.00;73.70
9544;DHT22;30418;51.45933468;7.33152330;2022-10-16T07:49:11;17.00;73.70
9544;DHT22;30418;51.45933468;7.33152330;2022-10-16T07:51:40;17.00;73.70
9544;DHT22;30418;51.45933468;7.33152330;2022-10-16T07:54:10;17.00;73.70
9544;DHT22;30418;51.45933468;7.33152330;2022-10-16T07:56:39;17.00;73.90
9544;DHT22;30418;51.45933468;7.33152330;2022-10-16T07:59:10;17.00;74.00
9544;DHT22;30418;51.45933468;7.33152330;2022-10-16T08:01:39;17.10;74.20
9544;DHT22;30418;51.45933468;7.33152330;2022-10-16T08:04:09;17.10;74.20
9544;DHT22;30418;51.45933468;7.33152330;2022-10-16T08:06:39;17.10;74.30
9544;DHT22;30418;51.45933468;7.33152330;2022-10-16T08:09:10;17.10;74.40
9544;DHT22;30418;51.45933468;7.33152330;2022-10-16T08:11:38;17.20;74.60
9544;DHT22;30418;51.45933468;7.33152330;2022-10-16T08:14:07;17.20;74.60
9544;DHT22;30418;51.45933468;7.33152330;2022-10-16T08:16:36;17.30;74.80
9544;DHT22;30418;51.45933468;7.33152330;2022-10-16T08:19:04;17.30;74.80
9544;DHT22;30418;51.45933468;7.33152330;2022-10-16T08:21:33;17.30;74.80
9544;DHT22;30418;51.45933468;7.33152330;2022-10-16T08:24:01;17.30;74.80
9544;DHT22;30418;51.45933468;7.33152330;2022-10-16T08:26:31;17.40;74.80
9544;DHT22;30418;51.45933468;7.33152330;2022-10-16T08:29:00;17.40;74.80
9544;DHT22;30418;51.45933468;7.33152330;2022-10-16T08:31:29;17.50;74.90
9544;DHT22;30418;51.45933468;7.33152330;2022-10-16T08:33:57;17.50;74.80
9544;DHT22;30418;51.45933468;7.33152330;2022-10-16T08:36:25;17.60;74.80
9544;DHT22;30418;51.45933468;7.33152330;2022-10-16T08:38:54;17.60;74.70
9544;DHT22;30418;51.45933468;7.33152330;2022-10-16T08:41:56;17.70;74.70
9544;DHT22;30418;51.45933468;7.33152330;2022-10-16T08:45:06;17.70;74.50
9544;DHT22;30418;51.45933468;7.33152330;2022-10-16T08:47:48;17.80;74.40
9544;DHT22;30418;51.45933468;7.33152330;2022-10-16T08:50:22;17.80;74.30
9544;DHT22;30418;51.45933468;7.33152330;2022-10-16T08:52:54;17.90;74.20
9544;DHT22;30418;51.45933468;7.33152330;2022-10-16T08:55:30;17.90;74.00
9544;DHT22;30418;51.45933468;7.33152330;2022-10-16T08:58:10;17.90;73.70
9544;DHT22;30418;51.45933468;7.33152330;2022-10-16T09:00:42;18.00;73.70
9544;DHT22;30418;51.45933468;7.33152330;2022-10-16T09:03:17;18.00;73.60
9544;DHT22;30418;51.45933468;7.33152330;2022-10-16T09:06:01;18.00;73.40
9544;DHT22;30418;51.45933468;7.33152330;2022-10-16T09:08:49;18.10;73.30
9544;DHT22;30418;51.45933468;7.33152330;2022-10-16T09:11:30;18.10;73.10
9544;DHT22;30418;51.45933468;7.33152330;2022-10-16T09:14:18;18.20;73.30
9544;DHT22;30418;51.45933468;7.33152330;2022-10-16T09:17:12;18.20;73.00
9544;DHT22;30418;51.45933468;7.33152330;2022-10-16T09:19:53;18.30;72.90
9544;DHT22;30418;51.45933468;7.33152330;2022-10-16T09:22:27;18.30;72.90
9544;DHT22;30418;51.45933468;7.33152330;2022-10-16T09:25:00;18.30;72.70
9544;DHT22;30418;51.45933468;7.33152330;2022-10-16T09:27:30;18.30;72.60
9544;DHT22;30418;51.45933468;7.33152330;2022-10-16T09:30:00;18.40;72.80
9544;DHT22;30418;51.45933468;7.33152330;2022-10-16T09:32:29;18.40;72.60
9544;DHT22;30418;51.45933468;7.33152330;2022-10-16T09:34:58;18.50;72.70
9544;DHT22;30418;51.45933468;7.33152330;2022-10-16T09:37:27;18.50;72.70
9544;DHT22;30418;51.45933468;7.33152330;2022-10-16T09:39:56;18.60;72.70
9544;DHT22;30418;51.45933468;7.33152330;2022-10-16T09:42:32;18.60;72.70
9544;DHT22;30418;51.45933468;7.33152330;2022-10-16T09:45:19;18.70;72.40
9544;DHT22;30418;51.45933468;7.33152330;2022-10-16T09:47:49;18.70;72.30
9544;DHT22;30418;51.45933468;7.33152330;2022-10-16T09:50:25;18.70;72.10
9544;DHT22;30418;51.45933468;7.33152330;2022-10-16T09:53:08;18.80;71.90
9544;DHT22;30418;51.45933468;7.33152330;2022-10-16T09:55:48;18.80;71.40
9544;DHT22;30418;51.45933468;7.33152330;2022-10-16T09:58:17;18.80;71.40
9544;DHT22;30418;51.45933468;7.33152330;2022-10-16T10:00:52;18.80;71.40
9544;DHT22;30418;51.45933468;7.33152330;2022-10-16T10:03:35;18.80;71.30
9544;DHT22;30418;51.45933468;7.33152330;2022-10-16T10:06:16;18.80;71.30
9544;DHT22;30418;51.45933468;7.33152330;2022-10-16T10:08:58;18.80;71.30
9544;DHT22;30418;51.45933468;7.33152330;2022-10-16T10:11:47;18.90;71.30
9544;DHT22;30418;51.45933468;7.33152330;2022-10-16T10:14:20;18.90;71.10
9544;DHT22;30418;51.45933468;7.33152330;2022-10-16T10:17:10;18.90;71.40
9544;DHT22;30418;51.45933468;7.33152330;2022-10-16T10:19:42;18.90;70.70
9544;DHT22;30418;51.45933468;7.33152330;2022-10-16T10:22:21;19.00;71.10
9544;DHT22;30418;51.45933468;7.33152330;2022-10-16T10:25:00;18.90;70.80
9544;DHT22;30418;51.45933468;7.33152330;2022-10-16T10:27:50;19.00;70.70
9544;DHT22;30418;51.45933468;7.33152330;2022-10-16T10:30:32;19.00;70.50
9544;DHT22;30418;51.45933468;7.33152330;2022-10-16T10:33:16;19.00;70.40
9544;DHT22;30418;51.45933468;7.33152330;2022-10-16T10:35:55;19.00;70.40
9544;DHT22;30418;51.45933468;7.33152330;2022-10-16T10:38:39;18.90;70.20
9544;DHT22;30418;51.45933468;7.33152330;2022-10-16T10:41:34;18.90;70.10
9544;DHT22;30418;51.45933468;7.33152330;2022-10-16T10:44:35;18.90;70.00
9544;DHT22;30418;51.45933468;7.33152330;2022-10-16T10:47:20;19.00;70.30
9544;DHT22;30418;51.45933468;7.33152330;2022-10-16T10:50:00;19.00;70.20
9544;DHT22;30418;51.45933468;7.33152330;2022-10-16T10:52:43;19.00;71.20
9544;DHT22;30418;51.45933468;7.33152330;2022-10-16T10:55:24;19.00;70.40
9544;DHT22;30418;51.45933468;7.33152330;2022-10-16T10:58:10;19.00;70.00
9544;DHT22;30418;51.45933468;7.33152330;2022-10-16T11:00:57;19.10;69.80
9544;DHT22;30418;51.45933468;7.33152330;2022-10-16T11:03:37;19.10;69.80
9544;DHT22;30418;51.45933468;7.33152330;2022-10-16T11:06:33;19.20;69.80
9544;DHT22;30418;51.45933468;7.33152330;2022-10-16T11:09:09;19.20;69.60
9544;DHT22;30418;51.45933468;7.33152330;2022-10-16T11:11:45;19.20;69.60
9544;DHT22;30418;51.45933468;7.33152330;2022-10-16T11:14:20;19.30;70.00
9544;DHT22;30418;51.45933468;7.33152330;2022-10-16T11:16:54;19.30;69.90
9544;DHT22;30418;51.45933468;7.33152330;2022-10-16T11:19:35;19.40;70.20
9544;DHT22;30418;51.45933468;7.33152330;2022-10-16T11:22:13;19.40;69.90
9544;DHT22;30418;51.45933468;7.33152330;2022-10-16T11:24:48;19.50;69.50
9544;DHT22;30418;51.45933468;7.33152330;2022-10-16T11:27:33;19.60;69.80
9544;DHT22;30418;51.45933468;7.33152330;2022-10-16T11:30:11;19.60;69.40
9544;DHT22;30418;51.45933468;7.33152330;2022-10-16T11:32:53;19.70;70.00
9544;DHT22;30418;51.45933468;7.33152330;2022-10-16T11:35:32;19.70;68.50
9544;DHT22;30418;51.45933468;7.33152330;2022-10-16T11:38:14;19.80;68.70
9544;DHT22;30418;51.45933468;7.33152330;2022-10-16T11:40:58;19.80;68.60
9544;DHT22;30418;51.45933468;7.33152330;2022-10-16T11:43:34;19.80;68.70
9544;DHT22;30418;51.45933468;7.33152330;2022-10-16T11:46:11;19.90;68.70
9544;DHT22;30418;51.45933468;7.33152330;2022-10-16T11:48:45;19.90;68.30
9544;DHT22;30418;51.45933468;7.33152330;2022-10-16T11:51:25;19.90;68.30
9544;DHT22;30418;51.45933468;7.33152330;2022-10-16T11:54:04;20.00;68.00
9544;DHT22;30418;51.45933468;7.33152330;2022-10-16T11:56:40;20.00;67.80
9544;DHT22;30418;51.45933468;7.33152330;2022-10-16T11:59:16;20.00;67.70
9544;DHT22;30418;51.45933468;7.33152330;2022-10-16T12:01:53;20.00;67.40
9544;DHT22;30418;51.45933468;7.33152330;2022-10-16T12:04:26;20.10;67.50
9544;DHT22;30418;51.45933468;7.33152330;2022-10-16T12:07:04;20.10;67.40
9544;DHT22;30418;51.45933468;7.33152330;2022-10-16T12:09:38;20.20;67.40
9544;DHT22;30418;51.45933468;7.33152330;2022-10-16T12:12:23;20.20;67.30
9544;DHT22;30418;51.45933468;7.33152330;2022-10-16T12:15:03;20.20;66.30
9544;DHT22;30418;51.45933468;7.33152330;2022-10-16T12:17:56;20.20;67.00
9544;DHT22;30418;51.45933468;7.33152330;2022-10-16T12:20:27;20.20;67.20
9544;DHT22;30418;51.45933468;7.33152330;2022-10-16T12:23:01;20.20;66.70
9544;DHT22;30418;51.45933468;7.33152330;2022-10-16T12:25:33;20.30;67.00
9544;DHT22;30418;51.45933468;7.33152330;2022-10-16T12:28:05;20.30;66.60
9544;DHT22;30418;51.45933468;7.33152330;2022-10-16T12:30:52;20.30;66.60
9544;DHT22;30418;51.45933468;7.33152330;2022-10-16T12:33:24;20.40;66.40
9544;DHT22;30418;51.45933468;7.33152330;2022-10-16T12:35:54;20.40;66.70
9544;DHT22;30418;51.45933468;7.33152330;2022-10-16T12:38:26;20.40;66.70
9544;DHT22;30418;51.45933468;7.33152330;2022-10-16T12:40:59;20.40;66.60
9544;DHT22;30418;51.45933468;7.33152330;2022-10-16T12:43:38;20.40;66.20
9544;DHT22;30418;51.45933468;7.33152330;2022-10-16T12:46:37;20.40;65.90
9544;DHT22;30418;51.45933468;7.33152330;2022-10-16T12:49:23;20.40;65.90
9544;DHT22;30418;51.45933468;7.33152330;2022-10-16T12:51:58;20.40;65.70
9544;DHT22;30418;51.45933468;7.33152330;2022-10-16T12:54:29;20.40;66.20
9544;DHT22;30418;51.45933468;7.33152330;2022-10-16T12:57:25;20.40;65.90
9544;DHT22;30418;51.45933468;7.33152330;2022-10-16T13:00:12;20.40;65.20
9544;DHT22;30418;51.45933468;7.33152330;2022-10-16T13:02:58;20.50;65.70
9544;DHT22;30418;51.45933468;7.33152330;2022-10-16T13:06:13;20.50;65.60
9544;DHT22;30418;51.45933468;7.33152330;2022-10-16T13:08:58;20.50;65.60
9544;DHT22;30418;51.45933468;7.33152330;2022-10-16T13:15:11;20.50;65.20
9544;DHT22;30418;51.45933468;7.33152330;2022-10-16T13:18:10;20.50;65.00
9544;DHT22;30418;51.45933468;7.33152330;2022-10-16T13:20:54;20.50;65.40
9544;DHT22;30418;51.45933468;7.33152330;2022-10-16T13:23:33;20.50;65.20
9544;DHT22;30418;51.45933468;7.33152330;2022-10-16T13:26:14;20.50;65.60
9544;DHT22;30418;51.45933468;7.33152330;2022-10-16T13:28:49;20.60;65.60
9544;DHT22;30418;51.45933468;7.33152330;2022-10-16T13:31:20;20.70;65.90
9544;DHT22;30418;51.45933468;7.33152330;2022-10-16T13:33:53;20.70;65.60
9544;DHT22;30418;51.45933468;7.33152330;2022-10-16T13:36:24;20.70;65.70
9544;DHT22;30418;51.45933468;7.33152330;2022-10-16T13:39:12;20.80;65.90
9544;DHT22;30418;51.45933468;7.33152330;2022-10-16T13:41:41;20.80;64.80
9544;DHT22;30418;51.45933468;7.33152330;2022-10-16T13:44:17;20.80;65.40
9544;DHT22;30418;51.45933468;7.33152330;2022-10-16T13:46:58;20.90;64.90
9544;DHT22;30418;51.45933468;7.33152330;2022-10-16T13:49:27;20.90;64.70
9544;DHT22;30418;51.45933468;7.33152330;2022-10-16T13:51:56;20.90;65.00
9544;DHT22;30418;51.45933468;7.33152330;2022-10-16T13:54:27;20.90;64.60
9544;DHT22;30418;51.45933468;7.33152330;2022-10-16T13:56:55;21.00;64.80
9544;DHT22;30418;51.45933468;7.33152330;2022-10-16T13:59:37;21.00;64.90
9544;DHT22;30418;51.45933468;7.33152330;2022-10-16T14:02:17;21.10;64.80
9544;DHT22;30418;51.45933468;7.33152330;2022-10-16T14:04:48;21.10;64.00
9544;DHT22;30418;51.45933468;7.33152330;2022-10-16T14:07:23;21.20;64.40
9544;DHT22;30418;51.45933468;7.33152330;2022-10-16T14:09:54;21.10;63.80
9544;DHT22;30418;51.45933468;7.33152330;2022-10-16T14:12:23;21.10;63.60
9544;DHT22;30418;51.45933468;7.33152330;2022-10-16T14:14:57;21.10;63.40